sensor_id;sensor_type;location;lat;lon;timestamp;pressure;altitude;pressure_sealevel;temperature;humidity
49835;BME280;35729;52.090;13.162;2023-03-26T00:02:04;99759.84;;;7.25;88.64
49835;BME280;35729;52.090;13.162;2023-03-26T00:04:32;99776.47;;;7.21;89.07
49835;BME280;35729;52.090;13.162;2023-03-26T00:07:01;99780.88;;;7.17;90.22
49835;BME280;35729;52.090;13.162;2023-03-26T00:09:29;99782.78;;;7.11;90.49
49835;BME280;35729;52.090;13.162;2023-03-26T00:11:58;99783.06;;;6.98;90.67
49835;BME280;35729;52.090;13.162;2023-03-26T00:14:26;99802.38;;;6.90;91.50
49835;BME280;35729;52.090;13.162;2023-03-26T00:16:57;99798.34;;;6.75;92.12
49835;BME280;35729;52.090;13.162;2023-03-26T00:19:26;99814.28;;;6.61;93.79
49835;BME280;35729;52.090;13.162;2023-03-26T00:21:55;99791.94;;;6.49;95.34
49835;BME280;35729;52.090;13.162;2023-03-26T00:24:23;99804.25;;;6.41;96.56
49835;BME280;35729;52.090;13.162;2023-03-26T00:26:54;99808.75;;;6.32;97.13
49835;BME280;35729;52.090;13.162;2023-03-26T00:29:24;99798.50;;;6.25;97.37
49835;BME280;35729;52.090;13.162;2023-03-26T00:31:52;99805.50;;;6.21;98.16
49835;BME280;35729;52.090;13.162;2023-03-26T00:34:24;99799.56;;;6.13;98.68
49835;BME280;35729;52.090;13.162;2023-03-26T00:36:52;99792.63;;;6.13;99.24
49835;BME280;35729;52.090;13.162;2023-03-26T00:39:26;99801.31;;;6.12;99.30
49835;BME280;35729;52.090;13.162;2023-03-26T00:42:00;99797.03;;;6.10;99.79
49835;BME280;35729;52.090;13.162;2023-03-26T00:44:31;99796.19;;;6.09;99.66
49835;BME280;35729;52.090;13.162;2023-03-26T00:47:00;99785.78;;;6.08;99.83
49835;BME280;35729;52.090;13.162;2023-03-26T00:49:31;99790.13;;;6.07;99.97
49835;BME280;35729;52.090;13.162;2023-03-26T00:52:00;99791.88;;;6.07;99.69
49835;BME280;35729;52.090;13.162;2023-03-26T00:54:28;99790.13;;;6.07;99.61
49835;BME280;35729;52.090;13.162;2023-03-26T00:56:57;99785.78;;;6.08;99.24
49835;BME280;35729;52.090;13.162;2023-03-26T00:59:25;99793.56;;;6.09;98.74
49835;BME280;35729;52.090;13.162;2023-03-26T01:01:54;99801.34;;;6.11;98.12
49835;BME280;35729;52.090;13.162;2023-03-26T01:04:26;99788.34;;;6.11;98.06
49835;BME280;35729;52.090;13.162;2023-03-26T01:07:00;99790.06;;;6.12;97.35
49835;BME280;35729;52.090;13.162;2023-03-26T01:09:34;99788.25;;;6.14;97.13
49835;BME280;35729;52.090;13.162;2023-03-26T01:12:05;99789.94;;;6.18;97.53
49835;BME280;35729;52.090;13.162;2023-03-26T01:14:36;99791.63;;;6.19;95.87
49835;BME280;35729;52.090;13.162;2023-03-26T01:17:14;99789.06;;;6.17;96.81
49835;BME280;35729;52.090;13.162;2023-03-26T01:19:47;99789.00;;;6.22;97.56
49835;BME280;35729;52.090;13.162;2023-03-26T01:22:23;99783.75;;;6.24;97.30
49835;BME280;35729;52.090;13.162;2023-03-26T01:24:54;99781.13;;;6.24;96.53
49835;BME280;35729;52.090;13.162;2023-03-26T01:27:30;99785.47;;;6.25;95.50
49835;BME280;35729;52.090;13.162;2023-03-26T01:30:04;99787.19;;;6.26;95.90
49835;BME280;35729;52.090;13.162;2023-03-26T01:32:50;99794.13;;;6.25;95.00
49835;BME280;35729;52.090;13.162;2023-03-26T01:35:38;99789.78;;;6.24;93.45
49835;BME280;35729;52.090;13.162;2023-03-26T01:38:22;99805.38;;;6.27;95.56
49835;BME280;35729;52.090;13.162;2023-03-26T01:41:05;99794.97;;;6.27;92.73
49835;BME280;35729;52.090;13.162;2023-03-26T01:43:39;99791.47;;;6.28;94.04
49835;BME280;35729;52.090;13.162;2023-03-26T01:46:12;99788.91;;;6.25;93.02
49835;BME280;35729;52.090;13.162;2023-03-26T01:48:52;99788.81;;;6.31;92.13
49835;BME280;35729;52.090;13.162;2023-03-26T01:51:34;99789.63;;;6.33;93.36
49835;BME280;35729;52.090;13.162;2023-03-26T01:54:04;99790.44;;;6.35;93.85
49835;BME280;35729;52.090;13.162;2023-03-26T01:56:43;99783.47;;;6.38;92.46
49835;BME280;35729;52.090;13.162;2023-03-26T01:59:22;99787.81;;;6.39;93.09
49835;BME280;35729;52.090;13.162;2023-03-26T02:01:59;99787.81;;;6.39;92.30
49835;BME280;35729;52.090;13.162;2023-03-26T02:04:33;99786.97;;;6.36;90.79
49835;BME280;35729;52.090;13.162;2023-03-26T02:07:05;99795.53;;;6.43;90.32
49835;BME280;35729;52.090;13.162;2023-03-26T02:09:41;99790.28;;;6.45;91.85
49835;BME280;35729;52.090;13.162;2023-03-26T02:12:15;99781.56;;;6.47;92.05
49835;BME280;35729;52.090;13.162;2023-03-26T02:14:45;99786.72;;;6.49;92.03
49835;BME280;35729;52.090;13.162;2023-03-26T02:17:13;99784.13;;;6.49;91.97
49835;BME280;35729;52.090;13.162;2023-03-26T02:19:43;99791.84;;;6.54;89.73
49835;BME280;35729;52.090;13.162;2023-03-26T02:22:12;99795.25;;;6.57;91.03
49835;BME280;35729;52.090;13.162;2023-03-26T02:24:41;99800.44;;;6.59;88.43
49835;BME280;35729;52.090;13.162;2023-03-26T02:27:10;99803.84;;;6.62;89.96
49835;BME280;35729;52.090;13.162;2023-03-26T02:29:45;99798.63;;;6.62;90.15
49835;BME280;35729;52.090;13.162;2023-03-26T02:32:14;99797.72;;;6.63;89.69
49835;BME280;35729;52.090;13.162;2023-03-26T02:34:44;99801.19;;;6.64;91.19
49835;BME280;35729;52.090;13.162;2023-03-26T02:37:15;99803.75;;;6.65;90.87
49835;BME280;35729;52.090;13.162;2023-03-26T02:39:44;99803.75;;;6.65;89.48
49835;BME280;35729;52.090;13.162;2023-03-26T02:42:13;99808.09;;;6.66;90.00
49835;BME280;35729;52.090;13.162;2023-03-26T02:44:45;99807.16;;;6.69;90.37
49835;BME280;35729;52.090;13.162;2023-03-26T02:47:13;99809.81;;;6.67;89.34
49835;BME280;35729;52.090;13.162;2023-03-26T02:49:42;99809.78;;;6.69;90.24
49835;BME280;35729;52.090;13.162;2023-03-26T02:52:10;99809.78;;;6.69;91.28
49835;BME280;35729;52.090;13.162;2023-03-26T02:54:41;99792.56;;;6.60;90.28
49835;BME280;35729;52.090;13.162;2023-03-26T02:57:10;99811.47;;;6.72;91.03
49835;BME280;35729;52.090;13.162;2023-03-26T02:59:38;99808.84;;;6.72;91.03
49835;BME280;35729;52.090;13.162;2023-03-26T03:02:09;99811.47;;;6.72;91.47
49835;BME280;35729;52.090;13.162;2023-03-26T03:04:39;99807.09;;;6.72;90.90
49835;BME280;35729;52.090;13.162;2023-03-26T03:07:08;99801.88;;;6.72;91.90
49835;BME280;35729;52.090;13.162;2023-03-26T03:09:42;99806.25;;;6.72;91.86
49835;BME280;35729;52.090;13.162;2023-03-26T03:12:10;99807.09;;;6.72;91.60
49835;BME280;35729;52.090;13.162;2023-03-26T03:14:39;99814.03;;;6.73;92.38
49835;BME280;35729;52.090;13.162;2023-03-26T03:17:10;99806.25;;;6.72;92.29
49835;BME280;35729;52.090;13.162;2023-03-26T03:19:38;99809.72;;;6.71;91.16
49835;BME280;35729;52.090;13.162;2023-03-26T03:22:07;99808.84;;;6.72;92.10
49835;BME280;35729;52.090;13.162;2023-03-26T03:24:35;99813.22;;;6.71;92.66
49835;BME280;35729;52.090;13.162;2023-03-26T03:27:04;99814.94;;;6.71;92.60
49835;BME280;35729;52.090;13.162;2023-03-26T03:29:32;99822.78;;;6.71;92.72
49835;BME280;35729;52.090;13.162;2023-03-26T03:32:02;99810.69;;;6.66;92.38
49835;BME280;35729;52.090;13.162;2023-03-26T03:34:33;99813.31;;;6.66;91.03
49835;BME280;35729;52.090;13.162;2023-03-26T03:37:03;99812.47;;;6.64;92.57
49835;BME280;35729;52.090;13.162;2023-03-26T03:39:31;99822.00;;;6.65;91.97
49835;BME280;35729;52.090;13.162;2023-03-26T03:41:59;99815.91;;;6.66;92.63
49835;BME280;35729;52.090;13.162;2023-03-26T03:44:28;99816.78;;;6.65;93.04
49835;BME280;35729;52.090;13.162;2023-03-26T03:46:56;99815.06;;;6.64;92.51
49835;BME280;35729;52.090;13.162;2023-03-26T03:49:25;99820.28;;;6.64;93.29
49835;BME280;35729;52.090;13.162;2023-03-26T03:51:56;99811.66;;;6.61;92.15
49835;BME280;35729;52.090;13.162;2023-03-26T03:54:25;99816.03;;;6.60;92.72
49835;BME280;35729;52.090;13.162;2023-03-26T03:56:55;99819.59;;;6.56;92.54
49835;BME280;35729;52.090;13.162;2023-03-26T03:59:23;99812.69;;;6.54;93.57
49835;BME280;35729;52.090;13.162;2023-03-26T04:01:52;99819.69;;;6.51;93.77
49835;BME280;35729;52.090;13.162;2023-03-26T04:04:20;99811.06;;;6.48;93.41
49835;BME280;35729;52.090;13.162;2023-03-26T04:06:49;99819.75;;;6.47;93.44
49835;BME280;35729;52.090;13.162;2023-03-26T04:09:20;99821.56;;;6.45;93.12
49835;BME280;35729;52.090;13.162;2023-03-26T04:11:49;99819.84;;;6.44;92.26
49835;BME280;35729;52.090;13.162;2023-03-26T04:14:17;99825.00;;;6.45;92.04
49835;BME280;35729;52.090;13.162;2023-03-26T04:16:46;99823.25;;;6.47;93.35
49835;BME280;35729;52.090;13.162;2023-03-26T04:19:15;99823.25;;;6.47;94.33
49835;BME280;35729;52.090;13.162;2023-03-26T04:21:43;99824.13;;;6.46;92.95
49835;BME280;35729;52.090;13.162;2023-03-26T04:24:12;99814.53;;;6.47;94.59
49835;BME280;35729;52.090;13.162;2023-03-26T04:26:43;99818.09;;;6.43;92.98
49835;BME280;35729;52.090;13.162;2023-03-26T04:29:13;99827.66;;;6.44;94.00
49835;BME280;35729;52.090;13.162;2023-03-26T04:31:42;99825.00;;;6.45;93.19
49835;BME280;35729;52.090;13.162;2023-03-26T04:34:19;99829.38;;;6.45;93.72
49835;BME280;35729;52.090;13.162;2023-03-26T04:36:48;99826.75;;;6.45;93.83
49835;BME280;35729;52.090;13.162;2023-03-26T04:39:19;99831.09;;;6.46;93.65
49835;BME280;35729;52.090;13.162;2023-03-26T04:41:56;99825.88;;;6.46;94.28
49835;BME280;35729;52.090;13.162;2023-03-26T04:44:24;99831.91;;;6.48;93.76
49835;BME280;35729;52.090;13.162;2023-03-26T04:46:54;99826.69;;;6.48;94.46
49835;BME280;35729;52.090;13.162;2023-03-26T04:49:23;99823.16;;;6.50;94.30
49835;BME280;35729;52.090;13.162;2023-03-26T04:51:51;99821.44;;;6.49;94.29
49835;BME280;35729;52.090;13.162;2023-03-26T04:54:21;99826.66;;;6.49;93.65
49835;BME280;35729;52.090;13.162;2023-03-26T04:57:01;99820.56;;;6.50;93.04
49835;BME280;35729;52.090;13.162;2023-03-26T04:59:31;99824.94;;;6.50;94.15
49835;BME280;35729;52.090;13.162;2023-03-26T05:02:02;99830.09;;;6.51;93.17
49835;BME280;35729;52.090;13.162;2023-03-26T05:04:32;99832.66;;;6.53;93.21
49835;BME280;35729;52.090;13.162;2023-03-26T05:07:03;99825.72;;;6.54;93.56
49835;BME280;35729;52.090;13.162;2023-03-26T05:09:32;99825.72;;;6.54;93.30
49835;BME280;35729;52.090;13.162;2023-03-26T05:12:03;99819.63;;;6.55;94.33
49835;BME280;35729;52.090;13.162;2023-03-26T05:14:32;99820.47;;;6.55;94.33
49835;BME280;35729;52.090;13.162;2023-03-26T05:17:01;99812.81;;;6.47;93.79
49835;BME280;35729;52.090;13.162;2023-03-26T05:19:30;99825.66;;;6.57;93.72
49835;BME280;35729;52.090;13.162;2023-03-26T05:21:59;99823.94;;;6.57;93.02
49835;BME280;35729;52.090;13.162;2023-03-26T05:24:28;99825.66;;;6.57;93.21
49835;BME280;35729;52.090;13.162;2023-03-26T05:26:56;99830.81;;;6.58;93.68
49835;BME280;35729;52.090;13.162;2023-03-26T05:29:27;99828.22;;;6.58;93.48
49835;BME280;35729;52.090;13.162;2023-03-26T05:31:55;99833.44;;;6.60;91.41
49835;BME280;35729;52.090;13.162;2023-03-26T05:34:24;99839.50;;;6.60;93.12
49835;BME280;35729;52.090;13.162;2023-03-26T05:36:52;99839.41;;;6.63;93.21
49835;BME280;35729;52.090;13.162;2023-03-26T05:39:21;99841.13;;;6.64;93.19
49835;BME280;35729;52.090;13.162;2023-03-26T05:41:52;99834.19;;;6.65;92.94
49835;BME280;35729;52.090;13.162;2023-03-26T05:44:20;99836.78;;;6.65;90.56
49835;BME280;35729;52.090;13.162;2023-03-26T05:46:51;99836.78;;;6.65;91.60
49835;BME280;35729;52.090;13.162;2023-03-26T05:49:20;99838.47;;;6.67;92.18
49835;BME280;35729;52.090;13.162;2023-03-26T05:51:48;99829.91;;;6.61;92.44
49835;BME280;35729;52.090;13.162;2023-03-26T05:54:16;99836.69;;;6.71;91.08
49835;BME280;35729;52.090;13.162;2023-03-26T05:56:45;99836.59;;;6.74;93.13
49835;BME280;35729;52.090;13.162;2023-03-26T05:59:13;99829.63;;;6.75;93.11
49835;BME280;35729;52.090;13.162;2023-03-26T06:01:42;99829.63;;;6.76;91.70
49835;BME280;35729;52.090;13.162;2023-03-26T06:04:14;99841.72;;;6.79;92.38
49835;BME280;35729;52.090;13.162;2023-03-26T06:06:42;99826.09;;;6.77;92.01
49835;BME280;35729;52.090;13.162;2023-03-26T06:09:12;99838.16;;;6.83;91.74
49835;BME280;35729;52.090;13.162;2023-03-26T06:11:41;99837.25;;;6.85;91.10
49835;BME280;35729;52.090;13.162;2023-03-26T06:14:09;99845.03;;;6.87;89.14
49835;BME280;35729;52.090;13.162;2023-03-26T06:16:38;99839.75;;;6.90;91.74
49835;BME280;35729;52.090;13.162;2023-03-26T06:19:06;99851.00;;;6.92;89.28
49835;BME280;35729;52.090;13.162;2023-03-26T06:21:37;99849.22;;;6.94;90.75
49835;BME280;35729;52.090;13.162;2023-03-26T06:24:06;99850.06;;;6.95;89.02
49835;BME280;35729;52.090;13.162;2023-03-26T06:26:34;99856.97;;;6.97;88.65
49835;BME280;35729;52.090;13.162;2023-03-26T06:29:03;99852.50;;;7.03;90.05
49835;BME280;35729;52.090;13.162;2023-03-26T06:31:31;99849.03;;;7.04;88.76
49835;BME280;35729;52.090;13.162;2023-03-26T06:34:00;99848.97;;;7.07;88.32
49835;BME280;35729;52.090;13.162;2023-03-26T06:36:28;99848.09;;;7.08;88.59
49835;BME280;35729;52.090;13.162;2023-03-26T06:38:59;99852.38;;;7.10;88.90
49835;BME280;35729;52.090;13.162;2023-03-26T06:41:28;99847.13;;;7.12;89.15
49835;BME280;35729;52.090;13.162;2023-03-26T06:44:03;99851.38;;;7.16;86.86
49835;BME280;35729;52.090;13.162;2023-03-26T06:46:31;99845.16;;;7.22;88.52
49835;BME280;35729;52.090;13.162;2023-03-26T06:49:00;99843.31;;;7.25;87.47
49835;BME280;35729;52.090;13.162;2023-03-26T06:51:28;99838.06;;;7.28;82.06
49835;BME280;35729;52.090;13.162;2023-03-26T06:53:59;99865.78;;;7.32;81.88
49835;BME280;35729;52.090;13.162;2023-03-26T06:56:28;99848.28;;;7.38;86.16
49835;BME280;35729;52.090;13.162;2023-03-26T06:58:56;99850.03;;;7.37;84.13
49835;BME280;35729;52.090;13.162;2023-03-26T07:01:24;99855.13;;;7.42;86.15
49835;BME280;35729;52.090;13.162;2023-03-26T07:03:53;99846.34;;;7.46;84.28
49835;BME280;35729;52.090;13.162;2023-03-26T07:06:22;99851.44;;;7.50;84.00
49835;BME280;35729;52.090;13.162;2023-03-26T07:08:51;99853.13;;;7.53;79.34
49835;BME280;35729;52.090;13.162;2023-03-26T07:11:22;99854.94;;;7.51;81.43
49835;BME280;35729;52.090;13.162;2023-03-26T07:13:51;99855.78;;;7.52;81.21
49835;BME280;35729;52.090;13.162;2023-03-26T07:16:20;99858.38;;;7.52;79.82
49835;BME280;35729;52.090;13.162;2023-03-26T07:18:49;99857.59;;;7.48;79.70
49835;BME280;35729;52.090;13.162;2023-03-26T07:21:20;99847.19;;;7.46;79.04
49835;BME280;35729;52.090;13.162;2023-03-26T07:23:49;99855.13;;;7.43;77.16
49835;BME280;35729;52.090;13.162;2023-03-26T07:26:25;99863.03;;;7.39;75.94
49835;BME280;35729;52.090;13.162;2023-03-26T07:29:01;99856.94;;;7.40;81.06
49835;BME280;35729;52.090;13.162;2023-03-26T07:31:40;99846.50;;;7.40;81.06
49835;BME280;35729;52.090;13.162;2023-03-26T07:34:21;99856.84;;;7.43;79.29
49835;BME280;35729;52.090;13.162;2023-03-26T07:36:59;99869.06;;;7.42;77.67
49835;BME280;35729;52.090;13.162;2023-03-26T07:39:44;99859.41;;;7.46;79.19
49835;BME280;35729;52.090;13.162;2023-03-26T07:42:30;99862.88;;;7.46;78.70
49835;BME280;35729;52.090;13.162;2023-03-26T07:45:12;99829.03;;;7.43;80.35
49835;BME280;35729;52.090;13.162;2023-03-26T07:47:44;99858.25;;;7.58;81.14
49835;BME280;35729;52.090;13.162;2023-03-26T07:50:14;99858.16;;;7.62;76.49
49835;BME280;35729;52.090;13.162;2023-03-26T07:52:44;99843.22;;;7.68;78.95
49835;BME280;35729;52.090;13.162;2023-03-26T07:55:14;99860.50;;;7.73;74.73
49835;BME280;35729;52.090;13.162;2023-03-26T07:57:52;99847.28;;;7.79;78.68
49835;BME280;35729;52.090;13.162;2023-03-26T08:00:27;99837.56;;;7.86;80.22
49835;BME280;35729;52.090;13.162;2023-03-26T08:03:29;99842.63;;;7.92;72.49
49835;BME280;35729;52.090;13.162;2023-03-26T08:06:06;99826.97;;;7.92;74.83
49835;BME280;35729;52.090;13.162;2023-03-26T08:08:42;99841.34;;;8.09;77.91
49835;BME280;35729;52.090;13.162;2023-03-26T08:11:26;99828.94;;;8.17;73.41
49835;BME280;35729;52.090;13.162;2023-03-26T08:14:04;99828.66;;;8.28;72.81
49835;BME280;35729;52.090;13.162;2023-03-26T08:16:40;99832.84;;;8.34;70.80
49835;BME280;35729;52.090;13.162;2023-03-26T08:19:19;99825.56;;;8.45;77.85
49835;BME280;35729;52.090;13.162;2023-03-26T08:21:54;99825.38;;;8.53;76.46
49835;BME280;35729;52.090;13.162;2023-03-26T08:24:30;99824.25;;;8.61;75.08
49835;BME280;35729;52.090;13.162;2023-03-26T08:27:06;99815.31;;;8.70;73.85
49835;BME280;35729;52.090;13.162;2023-03-26T08:29:45;99815.94;;;8.78;74.60
49835;BME280;35729;52.090;13.162;2023-03-26T08:32:19;99821.94;;;8.82;71.45
49835;BME280;35729;52.090;13.162;2023-03-26T08:34:48;99817.63;;;8.79;69.47
49835;BME280;35729;52.090;13.162;2023-03-26T08:37:17;99806.22;;;8.84;71.85
49835;BME280;35729;52.090;13.162;2023-03-26T08:39:45;99812.28;;;8.84;65.02
49835;BME280;35729;52.090;13.162;2023-03-26T08:42:46;99806.94;;;8.89;67.58
49835;BME280;35729;52.090;13.162;2023-03-26T08:45:52;99809.34;;;8.95;68.59
49835;BME280;35729;52.090;13.162;2023-03-26T08:51:52;99817.75;;;9.05;60.65
49835;BME280;35729;52.090;13.162;2023-03-26T08:54:45;99802.03;;;9.06;61.47
49835;BME280;35729;52.090;13.162;2023-03-26T08:57:27;99806.31;;;9.09;60.86
49835;BME280;35729;52.090;13.162;2023-03-26T09:03:26;99791.03;;;9.23;65.06
49835;BME280;35729;52.090;13.162;2023-03-26T09:06:15;99802.28;;;9.27;61.29
49835;BME280;35729;52.090;13.162;2023-03-26T09:09:14;99786.56;;;9.27;61.06
49835;BME280;35729;52.090;13.162;2023-03-26T09:12:01;99783.63;;;9.38;66.36
49835;BME280;35729;52.090;13.162;2023-03-26T09:18:02;99775.66;;;9.41;61.83
49835;BME280;35729;52.090;13.162;2023-03-26T09:27:04;99788.72;;;9.69;63.51
49835;BME280;35729;52.090;13.162;2023-03-26T09:30:00;99777.31;;;9.70;63.59
49835;BME280;35729;52.090;13.162;2023-03-26T09:35:50;99783.94;;;9.81;69.47
49835;BME280;35729;52.090;13.162;2023-03-26T09:38:35;99787.22;;;9.87;67.79
49835;BME280;35729;52.090;13.162;2023-03-26T09:41:13;99782.75;;;9.91;70.53
49835;BME280;35729;52.090;13.162;2023-03-26T09:44:20;99783.59;;;9.91;65.97
49835;BME280;35729;52.090;13.162;2023-03-26T09:47:06;99790.53;;;9.92;68.40
49835;BME280;35729;52.090;13.162;2023-03-26T09:49:50;99789.78;;;9.89;68.06
49835;BME280;35729;52.090;13.162;2023-03-26T09:52:41;99789.72;;;9.90;66.32
49835;BME280;35729;52.090;13.162;2023-03-26T09:55:28;99787.09;;;9.90;66.49
49835;BME280;35729;52.090;13.162;2023-03-26T09:58:25;99791.38;;;9.93;66.47
49835;BME280;35729;52.090;13.162;2023-03-26T10:01:05;99797.50;;;9.93;71.05
49835;BME280;35729;52.090;13.162;2023-03-26T10:03:43;99783.63;;;9.90;66.83
49835;BME280;35729;52.090;13.162;2023-03-26T10:06:23;99788.94;;;9.88;67.18
49835;BME280;35729;52.090;13.162;2023-03-26T10:12:08;99787.91;;;9.92;66.87
49835;BME280;35729;52.090;13.162;2023-03-26T10:14:51;99788.69;;;9.96;68.44
49835;BME280;35729;52.090;13.162;2023-03-26T10:17:37;99793.78;;;9.99;66.46
49835;BME280;35729;52.090;13.162;2023-03-26T10:20:28;99782.41;;;10.00;67.20
49835;BME280;35729;52.090;13.162;2023-03-26T10:23:06;99782.19;;;10.06;68.68
49835;BME280;35729;52.090;13.162;2023-03-26T10:25:49;99776.00;;;10.09;68.75
49835;BME280;35729;52.090;13.162;2023-03-26T10:28:33;99780.41;;;10.07;64.75
49835;BME280;35729;52.090;13.162;2023-03-26T10:31:19;99754.34;;;10.04;67.41
49835;BME280;35729;52.090;13.162;2023-03-26T10:34:03;99771.38;;;10.16;67.07
49835;BME280;35729;52.090;13.162;2023-03-26T10:36:37;99767.78;;;10.18;70.74
49835;BME280;35729;52.090;13.162;2023-03-26T10:39:27;99760.84;;;10.17;65.74
49835;BME280;35729;52.090;13.162;2023-03-26T10:42:09;99765.28;;;10.15;66.75
49835;BME280;35729;52.090;13.162;2023-03-26T10:50:56;99753.44;;;10.28;65.48
49835;BME280;35729;52.090;13.162;2023-03-26T10:53:32;99755.00;;;10.34;69.72
49835;BME280;35729;52.090;13.162;2023-03-26T10:56:08;99745.28;;;10.38;70.13
49835;BME280;35729;52.090;13.162;2023-03-26T10:58:42;99747.78;;;10.41;70.57
49835;BME280;35729;52.090;13.162;2023-03-26T11:01:19;99747.63;;;10.46;66.76
49835;BME280;35729;52.090;13.162;2023-03-26T11:03:50;99751.09;;;10.46;67.05
49835;BME280;35729;52.090;13.162;2023-03-26T11:06:31;99750.31;;;10.44;64.05
49835;BME280;35729;52.090;13.162;2023-03-26T11:09:13;99742.53;;;10.41;65.25
49835;BME280;35729;52.090;13.162;2023-03-26T11:11:52;99739.84;;;10.42;64.39
49835;BME280;35729;52.090;13.162;2023-03-26T11:14:29;99749.28;;;10.48;66.88
49835;BME280;35729;52.090;13.162;2023-03-26T11:17:08;99740.31;;;10.54;67.94
49835;BME280;35729;52.090;13.162;2023-03-26T11:19:46;99741.88;;;10.59;64.72
49835;BME280;35729;52.090;13.162;2023-03-26T11:22:25;99734.72;;;10.63;64.21
49835;BME280;35729;52.090;13.162;2023-03-26T11:25:20;99738.09;;;10.67;63.81
49835;BME280;35729;52.090;13.162;2023-03-26T11:28:00;99725.75;;;10.69;66.46
49835;BME280;35729;52.090;13.162;2023-03-26T11:30:40;99721.31;;;10.71;64.72
49835;BME280;35729;52.090;13.162;2023-03-26T11:33:18;99724.75;;;10.73;64.29
49835;BME280;35729;52.090;13.162;2023-03-26T11:35:49;99728.34;;;10.70;63.09
49835;BME280;35729;52.090;13.162;2023-03-26T11:38:24;99710.81;;;10.71;63.37
49835;BME280;35729;52.090;13.162;2023-03-26T11:40:55;99708.19;;;10.71;67.09
49835;BME280;35729;52.090;13.162;2023-03-26T11:43:28;99703.69;;;10.74;67.63
49835;BME280;35729;52.090;13.162;2023-03-26T11:45:58;99706.09;;;10.81;68.88
49835;BME280;35729;52.090;13.162;2023-03-26T11:48:32;99706.69;;;10.87;68.03
49835;BME280;35729;52.090;13.162;2023-03-26T11:51:06;99697.78;;;10.91;64.27
49835;BME280;35729;52.090;13.162;2023-03-26T11:53:38;99693.31;;;10.94;65.54
49835;BME280;35729;52.090;13.162;2023-03-26T11:56:19;99693.09;;;11.00;66.34
49835;BME280;35729;52.090;13.162;2023-03-26T11:58:54;99686.91;;;11.01;65.98
49835;BME280;35729;52.090;13.162;2023-03-26T12:01:26;99689.22;;;11.08;65.54
49835;BME280;35729;52.090;13.162;2023-03-26T12:03:58;99684.72;;;11.12;66.37
49835;BME280;35729;52.090;13.162;2023-03-26T12:06:31;99681.81;;;11.18;66.90
49835;BME280;35729;52.090;13.162;2023-03-26T12:09:02;99684.97;;;11.27;66.79
49835;BME280;35729;52.090;13.162;2023-03-26T12:11:32;99680.28;;;11.35;66.24
49835;BME280;35729;52.090;13.162;2023-03-26T12:14:02;99672.91;;;11.43;65.92
49835;BME280;35729;52.090;13.162;2023-03-26T12:16:55;99669.13;;;11.50;61.33
49835;BME280;35729;52.090;13.162;2023-03-26T12:19:24;99673.97;;;11.60;64.92
49835;BME280;35729;52.090;13.162;2023-03-26T12:21:53;99673.56;;;11.69;65.57
49835;BME280;35729;52.090;13.162;2023-03-26T12:24:29;99664.41;;;11.78;60.64
49835;BME280;35729;52.090;13.162;2023-03-26T12:27:00;99670.28;;;11.84;64.20
49835;BME280;35729;52.090;13.162;2023-03-26T12:29:29;99662.81;;;11.94;64.53
49835;BME280;35729;52.090;13.162;2023-03-26T12:32:05;99661.66;;;12.01;61.58
49835;BME280;35729;52.090;13.162;2023-03-26T12:34:35;99659.63;;;12.08;63.92
49835;BME280;35729;52.090;13.162;2023-03-26T12:37:06;99657.66;;;12.13;62.76
49835;BME280;35729;52.090;13.162;2023-03-26T12:39:39;99650.75;;;12.11;61.99
49835;BME280;35729;52.090;13.162;2023-03-26T12:42:24;99663.09;;;12.09;58.00
49835;BME280;35729;52.090;13.162;2023-03-26T12:44:55;99662.53;;;12.02;62.75
49835;BME280;35729;52.090;13.162;2023-03-26T12:47:26;99660.25;;;11.93;62.61
49835;BME280;35729;52.090;13.162;2023-03-26T12:49:55;99663.16;;;11.86;61.41
49835;BME280;35729;52.090;13.162;2023-03-26T12:52:43;99660.94;;;11.77;56.89
49835;BME280;35729;52.090;13.162;2023-03-26T12:55:33;99673.44;;;11.72;59.06
49835;BME280;35729;52.090;13.162;2023-03-26T12:58:15;99666.75;;;11.65;62.86
49835;BME280;35729;52.090;13.162;2023-03-26T13:00:54;99668.78;;;11.58;63.50
49835;BME280;35729;52.090;13.162;2023-03-26T13:03:37;99666.34;;;11.53;62.77
49835;BME280;35729;52.090;13.162;2023-03-26T13:06:21;99661.34;;;11.47;65.14
49835;BME280;35729;52.090;13.162;2023-03-26T13:09:19;99654.59;;;11.41;65.87
49835;BME280;35729;52.090;13.162;2023-03-26T13:12:11;99652.25;;;11.35;67.65
49835;BME280;35729;52.090;13.162;2023-03-26T13:15:05;99648.88;;;11.32;68.04
49835;BME280;35729;52.090;13.162;2023-03-26T13:17:42;99649.88;;;11.29;68.90
49835;BME280;35729;52.090;13.162;2023-03-26T13:20:18;99647.31;;;11.28;69.14
49835;BME280;35729;52.090;13.162;2023-03-26T13:22:53;99640.41;;;11.25;69.40
49835;BME280;35729;52.090;13.162;2023-03-26T13:25:33;99648.28;;;11.25;69.42
49835;BME280;35729;52.090;13.162;2023-03-26T13:28:23;99640.53;;;11.22;69.66
49835;BME280;35729;52.090;13.162;2023-03-26T13:31:02;99643.88;;;11.25;69.29
49835;BME280;35729;52.090;13.162;2023-03-26T13:33:48;99636.81;;;11.28;68.73
49835;BME280;35729;52.090;13.162;2023-03-26T13:36:23;99635.75;;;11.32;69.24
49835;BME280;35729;52.090;13.162;2023-03-26T13:39:02;99632.03;;;11.37;68.18
49835;BME280;35729;52.090;13.162;2023-03-26T13:42:00;99630.97;;;11.41;64.89
49835;BME280;35729;52.090;13.162;2023-03-26T13:44:38;99630.78;;;11.46;65.83
49835;BME280;35729;52.090;13.162;2023-03-26T13:47:12;99629.72;;;11.50;66.49
49835;BME280;35729;52.090;13.162;2023-03-26T13:49:43;99626.94;;;11.53;65.97
49835;BME280;35729;52.090;13.162;2023-03-26T13:52:18;99627.81;;;11.54;62.01
49835;BME280;35729;52.090;13.162;2023-03-26T13:54:53;99627.09;;;11.50;61.49
49835;BME280;35729;52.090;13.162;2023-03-26T13:57:26;99629.97;;;11.44;62.63
49835;BME280;35729;52.090;13.162;2023-03-26T14:00:03;99624.81;;;11.43;64.86
49835;BME280;35729;52.090;13.162;2023-03-26T14:02:38;99627.53;;;11.39;61.91
49835;BME280;35729;52.090;13.162;2023-03-26T14:05:13;99620.53;;;11.40;64.50